sensor_id;sensor_type;location;lat;lon;timestamp;pressure;altitude;pressure_sealevel;temperature;humidity
39411;BME280;26579;43.238;23.124;2024-02-21T00:01:24;97700.75;;;7.87;73.96
39411;BME280;26579;43.238;23.124;2024-02-21T00:03:50;97705.94;;;7.87;73.97
39411;BME280;26579;43.238;23.124;2024-02-21T00:06:15;97709.28;;;7.89;73.50
39411;BME280;26579;43.238;23.124;2024-02-21T00:08:41;97685.34;;;7.69;73.60
39411;BME280;26579;43.238;23.124;2024-02-21T00:11:07;97704.06;;;7.75;74.13
39411;BME280;26579;43.238;23.124;2024-02-21T00:13:32;97694.25;;;7.65;73.07
39411;BME280;26579;43.238;23.124;2024-02-21T00:16:00;97705.34;;;7.67;73.03
39411;BME280;26579;43.238;23.124;2024-02-21T00:18:26;97705.50;;;7.64;72.88
39411;BME280;26579;43.238;23.124;2024-02-21T00:20:51;97689.97;;;7.64;72.28
39411;BME280;26579;43.238;23.124;2024-02-21T00:23:17;97696.53;;;7.70;72.45
39411;BME280;26579;43.238;23.124;2024-02-21T00:25:43;97688.13;;;7.66;72.09
39411;BME280;26579;43.238;23.124;2024-02-21T00:28:09;97688.88;;;7.68;72.24
39411;BME280;26579;43.238;23.124;2024-02-21T00:30:34;97688.84;;;7.54;72.83
39411;BME280;26579;43.238;23.124;2024-02-21T00:33:00;97695.69;;;7.55;73.23
39411;BME280;26579;43.238;23.124;2024-02-21T00:35:25;97694.97;;;7.37;73.71
39411;BME280;26579;43.238;23.124;2024-02-21T00:37:52;97689.38;;;7.45;73.16
39411;BME280;26579;43.238;23.124;2024-02-21T00:40:17;97688.19;;;7.51;72.90
39411;BME280;26579;43.238;23.124;2024-02-21T00:42:43;97687.06;;;7.55;72.57
39411;BME280;26579;43.238;23.124;2024-02-21T00:45:09;97677.81;;;7.51;72.72
39411;BME280;26579;43.238;23.124;2024-02-21T00:47:34;97684.91;;;7.47;72.81
39411;BME280;26579;43.238;23.124;2024-02-21T00:50:00;97677.31;;;7.44;73.16
39411;BME280;26579;43.238;23.124;2024-02-21T00:52:26;97664.38;;;7.44;73.05
39411;BME280;26579;43.238;23.124;2024-02-21T00:54:51;97672.09;;;7.60;72.27
39411;BME280;26579;43.238;23.124;2024-02-21T00:57:17;97669.59;;;7.58;71.35
39411;BME280;26579;43.238;23.124;2024-02-21T00:59:42;97651.38;;;7.60;71.42
39411;BME280;26579;43.238;23.124;2024-02-21T01:02:08;97663.22;;;7.64;71.54
39411;BME280;26579;43.238;23.124;2024-02-21T01:04:34;97649.22;;;7.52;71.75
39411;BME280;26579;43.238;23.124;2024-02-21T01:07:00;97654.88;;;7.59;72.06
39411;BME280;26579;43.238;23.124;2024-02-21T01:09:25;97653.69;;;7.64;72.00
39411;BME280;26579;43.238;23.124;2024-02-21T01:11:51;97637.66;;;7.58;71.96
39411;BME280;26579;43.238;23.124;2024-02-21T01:14:17;97636.50;;;7.47;72.45
39411;BME280;26579;43.238;23.124;2024-02-21T01:16:42;97646.25;;;7.58;72.23
39411;BME280;26579;43.238;23.124;2024-02-21T01:19:08;97653.13;;;7.59;72.25
39411;BME280;26579;43.238;23.124;2024-02-21T01:21:34;97636.53;;;7.62;71.33
39411;BME280;26579;43.238;23.124;2024-02-21T01:23:59;97645.19;;;7.62;71.83
39411;BME280;26579;43.238;23.124;2024-02-21T01:26:25;97633.97;;;7.62;72.46
39411;BME280;26579;43.238;23.124;2024-02-21T01:28:50;97628.13;;;7.58;71.72
39411;BME280;26579;43.238;23.124;2024-02-21T01:31:16;97643.69;;;7.58;71.91
39411;BME280;26579;43.238;23.124;2024-02-21T01:33:42;97629.50;;;7.49;71.74
39411;BME280;26579;43.238;23.124;2024-02-21T01:36:07;97633.50;;;7.55;71.69
39411;BME280;26579;43.238;23.124;2024-02-21T01:38:33;97640.31;;;7.56;71.95
39411;BME280;26579;43.238;23.124;2024-02-21T01:40:59;97625.31;;;7.47;71.60
39411;BME280;26579;43.238;23.124;2024-02-21T01:43:24;97633.78;;;7.51;71.80
39411;BME280;26579;43.238;23.124;2024-02-21T01:45:52;97628.41;;;7.54;71.50
39411;BME280;26579;43.238;23.124;2024-02-21T01:48:19;97634.25;;;7.57;71.00
39411;BME280;26579;43.238;23.124;2024-02-21T01:50:45;97627.84;;;7.48;71.61
39411;BME280;26579;43.238;23.124;2024-02-21T01:53:17;97625.44;;;7.45;71.92
39411;BME280;26579;43.238;23.124;2024-02-21T01:55:47;97623.50;;;7.49;71.55
39411;BME280;26579;43.238;23.124;2024-02-21T01:58:16;97623.56;;;7.47;71.35
39411;BME280;26579;43.238;23.124;2024-02-21T02:00:44;97635.31;;;7.53;71.62
39411;BME280;26579;43.238;23.124;2024-02-21T02:03:13;97634.59;;;7.51;71.08
39411;BME280;26579;43.238;23.124;2024-02-21T02:05:39;97628.41;;;7.54;71.27
39411;BME280;26579;43.238;23.124;2024-02-21T02:08:06;97622.03;;;7.59;71.07
39411;BME280;26579;43.238;23.124;2024-02-21T02:10:31;97609.41;;;7.53;70.91
39411;BME280;26579;43.238;23.124;2024-02-21T02:12:57;97614.91;;;7.63;70.61
39411;BME280;26579;43.238;23.124;2024-02-21T02:15:23;97612.13;;;7.52;70.35
39411;BME280;26579;43.238;23.124;2024-02-21T02:17:48;97611.81;;;7.56;70.80
39411;BME280;26579;43.238;23.124;2024-02-21T02:20:14;97608.94;;;7.46;71.16
39411;BME280;26579;43.238;23.124;2024-02-21T02:22:42;97607.19;;;7.47;70.80
39411;BME280;26579;43.238;23.124;2024-02-21T02:25:09;97614.41;;;7.56;70.34
39411;BME280;26579;43.238;23.124;2024-02-21T02:27:41;97604.81;;;7.58;70.83
39411;BME280;26579;43.238;23.124;2024-02-21T02:30:08;97609.81;;;7.61;70.88
39411;BME280;26579;43.238;23.124;2024-02-21T02:32:34;97597.97;;;7.71;70.24
39411;BME280;26579;43.238;23.124;2024-02-21T02:34:59;97601.13;;;7.77;70.09
39411;BME280;26579;43.238;23.124;2024-02-21T02:37:25;97606.31;;;7.77;70.19
39411;BME280;26579;43.238;23.124;2024-02-21T02:39:50;97605.75;;;7.71;70.69
39411;BME280;26579;43.238;23.124;2024-02-21T02:42:16;97603.16;;;7.71;69.96
39411;BME280;26579;43.238;23.124;2024-02-21T02:44:41;97604.63;;;7.61;70.32
39411;BME280;26579;43.238;23.124;2024-02-21T02:47:08;97600.00;;;7.66;70.66
39411;BME280;26579;43.238;23.124;2024-02-21T02:49:34;97596.78;;;7.63;70.27
39411;BME280;26579;43.238;23.124;2024-02-21T02:52:00;97592.03;;;7.55;70.47
39411;BME280;26579;43.238;23.124;2024-02-21T02:54:28;97604.63;;;7.61;70.48
39411;BME280;26579;43.238;23.124;2024-02-21T02:56:54;97597.13;;;7.57;70.16
39411;BME280;26579;43.238;23.124;2024-02-21T02:59:19;97599.34;;;7.63;68.76
39411;BME280;26579;43.238;23.124;2024-02-21T03:01:45;97593.78;;;7.55;68.76
39411;BME280;26579;43.238;23.124;2024-02-21T03:04:12;97604.34;;;7.52;68.91
39411;BME280;26579;43.238;23.124;2024-02-21T03:06:37;97599.34;;;7.48;68.59
39411;BME280;26579;43.238;23.124;2024-02-21T03:09:03;97608.88;;;7.48;68.71
39411;BME280;26579;43.238;23.124;2024-02-21T03:11:29;97613.13;;;7.49;68.56
39411;BME280;26579;43.238;23.124;2024-02-21T03:13:55;97628.75;;;7.47;68.83
39411;BME280;26579;43.238;23.124;2024-02-21T03:16:21;97625.59;;;7.42;68.61
39411;BME280;26579;43.238;23.124;2024-02-21T03:18:47;97615.69;;;7.35;68.24
39411;BME280;26579;43.238;23.124;2024-02-21T03:21:13;97612.34;;;7.33;67.43
39411;BME280;26579;43.238;23.124;2024-02-21T03:23:38;97621.28;;;7.27;67.22
39411;BME280;26579;43.238;23.124;2024-02-21T03:26:04;97626.47;;;7.13;68.18
39411;BME280;26579;43.238;23.124;2024-02-21T03:28:30;97628.81;;;7.01;68.00
39411;BME280;26579;43.238;23.124;2024-02-21T03:30:55;97624.66;;;6.99;68.43
39411;BME280;26579;43.238;23.124;2024-02-21T03:33:21;97631.47;;;7.00;68.57
39411;BME280;26579;43.238;23.124;2024-02-21T03:35:46;97626.66;;;6.94;68.22
39411;BME280;26579;43.238;23.124;2024-02-21T03:38:12;97631.00;;;6.93;68.35
39411;BME280;26579;43.238;23.124;2024-02-21T03:40:38;97623.13;;;6.95;67.92
39411;BME280;26579;43.238;23.124;2024-02-21T03:43:03;97622.88;;;6.99;67.83
39411;BME280;26579;43.238;23.124;2024-02-21T03:45:29;97629.81;;;6.99;67.73
39411;BME280;26579;43.238;23.124;2024-02-21T03:47:54;97624.75;;;6.82;67.45
39411;BME280;26579;43.238;23.124;2024-02-21T03:50:20;97622.06;;;6.83;67.47
39411;BME280;26579;43.238;23.124;2024-02-21T03:52:46;97636.94;;;6.95;66.96
39411;BME280;26579;43.238;23.124;2024-02-21T03:55:11;97629.41;;;6.91;67.48
39411;BME280;26579;43.238;23.124;2024-02-21T03:57:37;97634.75;;;6.88;67.60
39411;BME280;26579;43.238;23.124;2024-02-21T04:00:04;97632.94;;;6.90;67.21
39411;BME280;26579;43.238;23.124;2024-02-21T04:02:33;97640.69;;;6.90;67.18
39411;BME280;26579;43.238;23.124;2024-02-21T04:04:58;97633.31;;;6.98;66.83
39411;BME280;26579;43.238;23.124;2024-02-21T04:07:24;97624.06;;;6.94;66.91
39411;BME280;26579;43.238;23.124;2024-02-21T04:09:49;97620.88;;;6.89;66.98
39411;BME280;26579;43.238;23.124;2024-02-21T04:12:15;97626.66;;;6.94;67.22
39411;BME280;26579;43.238;23.124;2024-02-21T04:14:41;97619.13;;;7.05;66.50
39411;BME280;26579;43.238;23.124;2024-02-21T04:17:06;97625.88;;;7.08;65.65
39411;BME280;26579;43.238;23.124;2024-02-21T04:19:32;97620.28;;;6.99;65.74
39411;BME280;26579;43.238;23.124;2024-02-21T04:21:57;97619.28;;;7.02;65.55
39411;BME280;26579;43.238;23.124;2024-02-21T04:24:23;97630.16;;;6.93;65.57
39411;BME280;26579;43.238;23.124;2024-02-21T04:26:49;97625.41;;;6.85;65.97
39411;BME280;26579;43.238;23.124;2024-02-21T04:29:14;97609.97;;;6.84;65.40
39411;BME280;26579;43.238;23.124;2024-02-21T04:31:40;97612.66;;;6.82;65.75
39411;BME280;26579;43.238;23.124;2024-02-21T04:34:06;97625.25;;;6.88;66.28
39411;BME280;26579;43.238;23.124;2024-02-21T04:36:31;97625.16;;;6.90;65.99
39411;BME280;26579;43.238;23.124;2024-02-21T04:38:57;97624.66;;;6.83;66.13
39411;BME280;26579;43.238;23.124;2024-02-21T04:41:23;97610.66;;;6.71;66.52
39411;BME280;26579;43.238;23.124;2024-02-21T04:43:49;97621.00;;;6.71;66.00
39411;BME280;26579;43.238;23.124;2024-02-21T04:46:14;97614.41;;;6.66;65.93
39411;BME280;26579;43.238;23.124;2024-02-21T04:48:40;97619.69;;;6.64;65.69
39411;BME280;26579;43.238;23.124;2024-02-21T04:51:06;97622.34;;;6.63;66.21
39411;BME280;26579;43.238;23.124;2024-02-21T04:53:31;97617.34;;;6.60;65.67
39411;BME280;26579;43.238;23.124;2024-02-21T04:55:57;97619.09;;;6.59;65.64
39411;BME280;26579;43.238;23.124;2024-02-21T04:58:22;97628.28;;;6.65;65.27
39411;BME280;26579;43.238;23.124;2024-02-21T05:00:48;97631.84;;;6.62;66.38
39411;BME280;26579;43.238;23.124;2024-02-21T05:03:14;97629.44;;;6.59;66.23
39411;BME280;26579;43.238;23.124;2024-02-21T05:05:39;97616.19;;;6.49;66.56
39411;BME280;26579;43.238;23.124;2024-02-21T05:08:05;97624.78;;;6.50;66.37
39411;BME280;26579;43.238;23.124;2024-02-21T05:10:31;97618.00;;;6.47;65.97
39411;BME280;26579;43.238;23.124;2024-02-21T05:12:57;97618.09;;;6.46;66.33
39411;BME280;26579;43.238;23.124;2024-02-21T05:15:23;97625.09;;;6.44;66.52
39411;BME280;26579;43.238;23.124;2024-02-21T05:17:48;97622.53;;;6.44;66.89
39411;BME280;26579;43.238;23.124;2024-02-21T05:20:14;97623.84;;;6.35;66.77
39411;BME280;26579;43.238;23.124;2024-02-21T05:22:40;97628.75;;;6.40;67.11
39411;BME280;26579;43.238;23.124;2024-02-21T05:25:06;97626.19;;;6.40;67.00
39411;BME280;26579;43.238;23.124;2024-02-21T05:27:32;97631.19;;;6.43;67.32
39411;BME280;26579;43.238;23.124;2024-02-21T05:29:57;97624.50;;;6.39;66.80
39411;BME280;26579;43.238;23.124;2024-02-21T05:32:23;97636.88;;;6.49;67.25
39411;BME280;26579;43.238;23.124;2024-02-21T05:34:49;97633.19;;;6.53;66.84
39411;BME280;26579;43.238;23.124;2024-02-21T05:37:14;97631.09;;;6.60;66.48
39411;BME280;26579;43.238;23.124;2024-02-21T05:39:40;97626.19;;;6.55;67.08
39411;BME280;26579;43.238;23.124;2024-02-21T05:42:06;97626.69;;;6.62;66.76
39411;BME280;26579;43.238;23.124;2024-02-21T05:44:31;97636.34;;;6.74;66.24
39411;BME280;26579;43.238;23.124;2024-02-21T05:46:57;97627.69;;;6.75;66.14
39411;BME280;26579;43.238;23.124;2024-02-21T05:49:23;97634.41;;;6.94;65.40
39411;BME280;26579;43.238;23.124;2024-02-21T05:51:48;97640.91;;;7.01;65.66
39411;BME280;26579;43.238;23.124;2024-02-21T05:54:14;97642.91;;;7.12;65.26
39411;BME280;26579;43.238;23.124;2024-02-21T05:56:44;97643.78;;;7.26;64.35
39411;BME280;26579;43.238;23.124;2024-02-21T05:59:09;97649.19;;;7.38;63.38
39411;BME280;26579;43.238;23.124;2024-02-21T06:01:35;97637.91;;;7.39;63.56
39411;BME280;26579;43.238;23.124;2024-02-21T06:04:01;97647.09;;;7.59;63.49
39411;BME280;26579;43.238;23.124;2024-02-21T06:06:26;97635.16;;;7.56;63.18
39411;BME280;26579;43.238;23.124;2024-02-21T06:08:52;97650.38;;;7.77;62.20
39411;BME280;26579;43.238;23.124;2024-02-21T06:11:17;97651.84;;;7.81;62.39
39411;BME280;26579;43.238;23.124;2024-02-21T06:13:43;97661.88;;;7.87;62.32
39411;BME280;26579;43.238;23.124;2024-02-21T06:16:09;97653.25;;;7.86;62.12
39411;BME280;26579;43.238;23.124;2024-02-21T06:18:35;97658.34;;;8.02;60.92
39411;BME280;26579;43.238;23.124;2024-02-21T06:21:02;97661.69;;;8.19;60.12
39411;BME280;26579;43.238;23.124;2024-02-21T06:23:27;97665.09;;;8.76;59.20
39411;BME280;26579;43.238;23.124;2024-02-21T06:25:53;97666.31;;;10.29;54.36
39411;BME280;26579;43.238;23.124;2024-02-21T06:28:18;97659.69;;;11.93;49.79
39411;BME280;26579;43.238;23.124;2024-02-21T06:30:44;97658.75;;;13.16;45.89
39411;BME280;26579;43.238;23.124;2024-02-21T06:33:10;97659.72;;;14.41;43.14
39411;BME280;26579;43.238;23.124;2024-02-21T06:35:35;97651.09;;;15.10;41.55
39411;BME280;26579;43.238;23.124;2024-02-21T06:38:01;97656.53;;;16.23;39.04
39411;BME280;26579;43.238;23.124;2024-02-21T06:40:26;97654.97;;;17.49;37.22
39411;BME280;26579;43.238;23.124;2024-02-21T06:42:52;97652.63;;;18.08;35.43
39411;BME280;26579;43.238;23.124;2024-02-21T06:45:18;97654.47;;;18.50;34.56
39411;BME280;26579;43.238;23.124;2024-02-21T06:47:43;97651.06;;;18.23;34.65
39411;BME280;26579;43.238;23.124;2024-02-21T06:50:09;97657.78;;;18.52;34.49
39411;BME280;26579;43.238;23.124;2024-02-21T06:52:36;97655.75;;;19.14;33.31
39411;BME280;26579;43.238;23.124;2024-02-21T06:55:02;97649.84;;;19.94;31.98
39411;BME280;26579;43.238;23.124;2024-02-21T06:57:30;97656.09;;;20.65;30.73
39411;BME280;26579;43.238;23.124;2024-02-21T06:59:56;97656.72;;;20.84;29.86
39411;BME280;26579;43.238;23.124;2024-02-21T07:02:22;97643.13;;;21.18;29.82
39411;BME280;26579;43.238;23.124;2024-02-21T07:04:47;97648.84;;;21.30;29.62
39411;BME280;26579;43.238;23.124;2024-02-21T07:07:13;97640.72;;;21.54;28.62
39411;BME280;26579;43.238;23.124;2024-02-21T07:09:39;97651.22;;;21.16;28.24
39411;BME280;26579;43.238;23.124;2024-02-21T07:12:05;97650.44;;;20.29;28.29
39411;BME280;26579;43.238;23.124;2024-02-21T07:14:33;97645.63;;;21.42;27.54
39411;BME280;26579;43.238;23.124;2024-02-21T07:16:59;97642.44;;;22.52;26.11
39411;BME280;26579;43.238;23.124;2024-02-21T07:19:25;97640.75;;;23.54;25.01
39411;BME280;26579;43.238;23.124;2024-02-21T07:21:50;97642.34;;;23.98;23.81
39411;BME280;26579;43.238;23.124;2024-02-21T07:24:16;97644.94;;;24.47;23.73
39411;BME280;26579;43.238;23.124;2024-02-21T07:26:42;97638.88;;;23.11;24.88
39411;BME280;26579;43.238;23.124;2024-02-21T07:29:08;97633.84;;;22.21;25.94
39411;BME280;26579;43.238;23.124;2024-02-21T07:31:43;97645.56;;;21.51;26.61
39411;BME280;26579;43.238;23.124;2024-02-21T07:34:09;97649.34;;;21.25;27.83
39411;BME280;26579;43.238;23.124;2024-02-21T07:36:35;97643.28;;;21.16;27.70
39411;BME280;26579;43.238;23.124;2024-02-21T07:39:01;97647.72;;;20.53;29.34
39411;BME280;26579;43.238;23.124;2024-02-21T07:41:27;97649.59;;;20.28;28.50
39411;BME280;26579;43.238;23.124;2024-02-21T07:43:52;97643.25;;;19.90;29.03
39411;BME280;26579;43.238;23.124;2024-02-21T07:46:18;97627.34;;;20.62;27.96
39411;BME280;26579;43.238;23.124;2024-02-21T07:48:47;97641.94;;;20.42;27.40
39411;BME280;26579;43.238;23.124;2024-02-21T07:51:13;97627.63;;;21.07;27.29
39411;BME280;26579;43.238;23.124;2024-02-21T07:53:42;97634.59;;;20.99;27.43
39411;BME280;26579;43.238;23.124;2024-02-21T07:56:07;97633.63;;;20.69;28.07
39411;BME280;26579;43.238;23.124;2024-02-21T07:58:33;97635.97;;;19.92;28.83
39411;BME280;26579;43.238;23.124;2024-02-21T08:00:59;97633.13;;;20.10;28.49
39411;BME280;26579;43.238;23.124;2024-02-21T08:03:24;97632.84;;;20.52;27.94
39411;BME280;26579;43.238;23.124;2024-02-21T08:05:50;97634.47;;;20.06;28.72
39411;BME280;26579;43.238;23.124;2024-02-21T08:08:16;97637.16;;;20.85;27.83
39411;BME280;26579;43.238;23.124;2024-02-21T08:10:41;97635.59;;;20.67;27.36
39411;BME280;26579;43.238;23.124;2024-02-21T08:13:07;97623.88;;;21.24;26.96
39411;BME280;26579;43.238;23.124;2024-02-21T08:15:32;97626.72;;;20.52;27.46
39411;BME280;26579;43.238;23.124;2024-02-21T08:17:58;97631.97;;;20.99;27.11
39411;BME280;26579;43.238;23.124;2024-02-21T08:20:24;97629.91;;;20.87;27.11
39411;BME280;26579;43.238;23.124;2024-02-21T08:22:50;97620.41;;;21.23;26.83
39411;BME280;26579;43.238;23.124;2024-02-21T08:25:15;97620.97;;;21.42;26.55
39411;BME280;26579;43.238;23.124;2024-02-21T08:27:41;97615.19;;;20.84;27.08
39411;BME280;26579;43.238;23.124;2024-02-21T08:30:07;97620.53;;;21.91;26.17
39411;BME280;26579;43.238;23.124;2024-02-21T08:32:33;97624.28;;;21.82;26.44
39411;BME280;26579;43.238;23.124;2024-02-21T08:34:58;97611.81;;;22.86;24.32
39411;BME280;26579;43.238;23.124;2024-02-21T08:37:24;97620.19;;;23.19;24.01
39411;BME280;26579;43.238;23.124;2024-02-21T08:39:50;97619.84;;;23.08;23.52
39411;BME280;26579;43.238;23.124;2024-02-21T08:42:15;97615.50;;;21.96;24.57
39411;BME280;26579;43.238;23.124;2024-02-21T08:44:41;97618.38;;;22.39;24.89
39411;BME280;26579;43.238;23.124;2024-02-21T08:47:06;97617.31;;;21.81;25.28
39411;BME280;26579;43.238;23.124;2024-02-21T08:49:32;97614.38;;;23.59;24.02
39411;BME280;26579;43.238;23.124;2024-02-21T08:51:58;97610.13;;;23.36;23.51
39411;BME280;26579;43.238;23.124;2024-02-21T08:54:24;97614.09;;;22.89;24.84
39411;BME280;26579;43.238;23.124;2024-02-21T08:56:49;97612.31;;;22.60;24.64
39411;BME280;26579;43.238;23.124;2024-02-21T08:59:15;97615.94;;;22.23;24.55
39411;BME280;26579;43.238;23.124;2024-02-21T09:01:41;97619.75;;;22.35;24.72
39411;BME280;26579;43.238;23.124;2024-02-21T09:04:07;97621.38;;;22.51;25.58
39411;BME280;26579;43.238;23.124;2024-02-21T09:06:33;97614.31;;;22.13;26.12
39411;BME280;26579;43.238;23.124;2024-02-21T09:08:58;97616.28;;;20.03;26.39
39411;BME280;26579;43.238;23.124;2024-02-21T09:11:24;97604.75;;;19.06;27.96
39411;BME280;26579;43.238;23.124;2024-02-21T09:13:50;97608.03;;;18.49;27.73
39411;BME280;26579;43.238;23.124;2024-02-21T09:16:15;97615.50;;;17.75;28.85
39411;BME280;26579;43.238;23.124;2024-02-21T09:18:41;97610.91;;;18.29;29.51
39411;BME280;26579;43.238;23.124;2024-02-21T09:21:06;97619.78;;;17.76;30.12
39411;BME280;26579;43.238;23.124;2024-02-21T09:23:32;97617.44;;;17.29;29.69
39411;BME280;26579;43.238;23.124;2024-02-21T09:25:58;97629.13;;;16.53;32.06
39411;BME280;26579;43.238;23.124;2024-02-21T09:28:23;97625.69;;;16.16;31.85
39411;BME280;26579;43.238;23.124;2024-02-21T09:30:49;97610.88;;;15.77;32.38
39411;BME280;26579;43.238;23.124;2024-02-21T09:33:15;97627.63;;;15.08;33.60
39411;BME280;26579;43.238;23.124;2024-02-21T09:35:40;97630.34;;;14.87;35.48
39411;BME280;26579;43.238;23.124;2024-02-21T09:38:06;97625.09;;;14.78;36.31
39411;BME280;26579;43.238;23.124;2024-02-21T09:40:32;97629.66;;;14.85;37.55
39411;BME280;26579;43.238;23.124;2024-02-21T09:43:06;97619.97;;;14.66;36.34
39411;BME280;26579;43.238;23.124;2024-02-21T09:45:33;97637.06;;;14.70;37.04
39411;BME280;26579;43.238;23.124;2024-02-21T09:50:34;97630.75;;;14.42;38.03
39411;BME280;26579;43.238;23.124;2024-02-21T09:53:00;97637.47;;;14.25;37.83
39411;BME280;26579;43.238;23.124;2024-02-21T09:55:26;97639.28;;;14.04;37.52
39411;BME280;26579;43.238;23.124;2024-02-21T09:57:57;97647.09;;;13.94;38.61
39411;BME280;26579;43.238;23.124;2024-02-21T10:00:44;97642.09;;;13.91;39.06
39411;BME280;26579;43.238;23.124;2024-02-21T10:03:10;97626.59;;;13.78;38.48
39411;BME280;26579;43.238;23.124;2024-02-21T10:05:35;97636.63;;;13.73;37.98
39411;BME280;26579;43.238;23.124;2024-02-21T10:08:02;97626.34;;;13.61;38.87
39411;BME280;26579;43.238;23.124;2024-02-21T10:10:28;97629.47;;;13.54;37.83
39411;BME280;26579;43.238;23.124;2024-02-21T10:12:54;97635.53;;;13.23;39.14
39411;BME280;26579;43.238;23.124;2024-02-21T10:15:23;97640.69;;;13.13;39.37
39411;BME280;26579;43.238;23.124;2024-02-21T10:17:57;97622.47;;;12.90;39.80
39411;BME280;26579;43.238;23.124;2024-02-21T10:20:29;97629.56;;;13.00;39.80
39411;BME280;26579;43.238;23.124;2024-02-21T10:23:02;97624.69;;;13.06;40.25
39411;BME280;26579;43.238;23.124;2024-02-21T10:25:28;97624.78;;;13.05;39.22
39411;BME280;26579;43.238;23.124;2024-02-21T10:27:54;97621.94;;;13.08;39.52
39411;BME280;26579;43.238;23.124;2024-02-21T10:30:19;97623.13;;;13.04;40.17
39411;BME280;26579;43.238;23.124;2024-02-21T10:32:53;97613.22;;;12.86;40.21
39411;BME280;26579;43.238;23.124;2024-02-21T10:35:31;97625.59;;;12.62;40.53
39411;BME280;26579;43.238;23.124;2024-02-21T10:37:58;97625.03;;;12.58;41.22
39411;BME280;26579;43.238;23.124;2024-02-21T10:40:26;97613.41;;;12.51;41.13
39411;BME280;26579;43.238;23.124;2024-02-21T10:43:00;97615.78;;;12.54;41.38
39411;BME280;26579;43.238;23.124;2024-02-21T10:45:36;97608.63;;;12.67;40.51
39411;BME280;26579;43.238;23.124;2024-02-21T10:48:11;97605.16;;;12.78;40.46
39411;BME280;26579;43.238;23.124;2024-02-21T10:56:40;97583.34;;;13.00;38.81
39411;BME280;26579;43.238;23.124;2024-02-21T10:59:07;97589.63;;;13.09;38.95
39411;BME280;26579;43.238;23.124;2024-02-21T11:01:33;97588.25;;;13.14;38.63
39411;BME280;26579;43.238;23.124;2024-02-21T11:04:05;97579.69;;;13.24;38.49
39411;BME280;26579;43.238;23.124;2024-02-21T11:06:32;97587.25;;;13.38;38.87
39411;BME280;26579;43.238;23.124;2024-02-21T11:11:28;97592.03;;;13.54;37.73
39411;BME280;26579;43.238;23.124;2024-02-21T11:14:04;97585.22;;;13.42;38.13
39411;BME280;26579;43.238;23.124;2024-02-21T11:16:35;97585.03;;;13.22;39.63
39411;BME280;26579;43.238;23.124;2024-02-21T11:19:20;97592.66;;;12.82;41.83
39411;BME280;26579;43.238;23.124;2024-02-21T11:21:46;97599.56;;;12.83;41.48
39411;BME280;26579;43.238;23.124;2024-02-21T11:24:11;97601.75;;;12.55;44.14
39411;BME280;26579;43.238;23.124;2024-02-21T11:26:38;97585.19;;;12.22;46.09
39411;BME280;26579;43.238;23.124;2024-02-21T11:29:03;97591.56;;;11.85;46.41
39411;BME280;26579;43.238;23.124;2024-02-21T11:31:44;97575.72;;;11.88;47.46
39411;BME280;26579;43.238;23.124;2024-02-21T11:34:16;97574.53;;;12.03;47.85
39411;BME280;26579;43.238;23.124;2024-02-21T11:36:50;97578.44;;;12.20;50.30
39411;BME280;26579;43.238;23.124;2024-02-21T11:39:25;97567.81;;;12.44;47.44
39411;BME280;26579;43.238;23.124;2024-02-21T11:42:04;97565.81;;;12.80;46.64
39411;BME280;26579;43.238;23.124;2024-02-21T11:44:31;97559.50;;;13.14;44.44
39411;BME280;26579;43.238;23.124;2024-02-21T11:46:58;97558.22;;;13.41;43.31
39411;BME280;26579;43.238;23.124;2024-02-21T11:49:30;97546.97;;;13.71;42.85
39411;BME280;26579;43.238;23.124;2024-02-21T11:52:02;97550.03;;;13.76;42.21
39411;BME280;26579;43.238;23.124;2024-02-21T11:54:28;97556.59;;;14.01;42.45
39411;BME280;26579;43.238;23.124;2024-02-21T11:56:54;97547.63;;;14.44;41.84
39411;BME280;26579;43.238;23.124;2024-02-21T11:59:19;97529.00;;;14.47;40.18
39411;BME280;26579;43.238;23.124;2024-02-21T12:01:48;97537.84;;;14.46;40.05
39411;BME280;26579;43.238;23.124;2024-02-21T12:04:15;97533.97;;;14.50;39.95
39411;BME280;26579;43.238;23.124;2024-02-21T12:06:42;97518.16;;;14.62;40.21
39411;BME280;26579;43.238;23.124;2024-02-21T12:09:07;97525.88;;;14.54;40.65
39411;BME280;26579;43.238;23.124;2024-02-21T12:11:33;97514.81;;;14.40;40.19
39411;BME280;26579;43.238;23.124;2024-02-21T12:14:03;97530.47;;;14.21;40.19
39411;BME280;26579;43.238;23.124;2024-02-21T12:16:30;97525.78;;;14.15;40.00
39411;BME280;26579;43.238;23.124;2024-02-21T12:18:56;97513.88;;;14.01;41.83
39411;BME280;26579;43.238;23.124;2024-02-21T12:21:33;97526.06;;;13.81;42.90
39411;BME280;26579;43.238;23.124;2024-02-21T12:23:59;97538.09;;;13.63;44.08
39411;BME280;26579;43.238;23.124;2024-02-21T12:26:25;97515.63;;;13.29;45.38
39411;BME280;26579;43.238;23.124;2024-02-21T12:28:54;97520.25;;;13.26;45.83
39411;BME280;26579;43.238;23.124;2024-02-21T12:31:19;97532.03;;;13.20;45.78
39411;BME280;26579;43.238;23.124;2024-02-21T12:33:46;97525.72;;;13.02;46.11
39411;BME280;26579;43.238;23.124;2024-02-21T12:36:14;97525.75;;;12.90;46.65
39411;BME280;26579;43.238;23.124;2024-02-21T12:38:40;97523.59;;;12.96;46.65
39411;BME280;26579;43.238;23.124;2024-02-21T12:41:06;97515.41;;;13.00;46.71
39411;BME280;26579;43.238;23.124;2024-02-21T12:43:31;97520.63;;;13.00;46.35
39411;BME280;26579;43.238;23.124;2024-02-21T12:45:57;97505.69;;;12.91;46.52
39411;BME280;26579;43.238;23.124;2024-02-21T12:48:23;97500.28;;;12.83;46.07
39411;BME280;26579;43.238;23.124;2024-02-21T12:50:54;97503.41;;;12.98;46.71
39411;BME280;26579;43.238;23.124;2024-02-21T12:53:23;97514.47;;;12.90;47.58
39411;BME280;26579;43.238;23.124;2024-02-21T12:55:49;97518.72;;;12.70;48.26
39411;BME280;26579;43.238;23.124;2024-02-21T12:58:14;97502.66;;;12.54;49.06
39411;BME280;26579;43.238;23.124;2024-02-21T13:00:41;97512.06;;;12.45;50.10
39411;BME280;26579;43.238;23.124;2024-02-21T13:03:06;97510.16;;;12.36;50.33